createdAt,value
2022-12-16T00:00:01.577Z,95499.34
2022-12-16T00:02:29.966Z,95327.59
2022-12-16T00:04:58.762Z,95494.06
2022-12-16T00:07:27.115Z,95502.28
2022-12-16T00:09:55.392Z,95473.06
2022-12-16T00:12:23.712Z,95467.44
2022-12-16T00:14:52.054Z,95508.56
2022-12-16T00:17:21.767Z,95496.91
2022-12-16T00:19:50.049Z,95476.56
2022-12-16T00:22:21.765Z,95481.78
2022-12-16T00:24:50.007Z,95514.19
2022-12-16T00:27:18.774Z,95423.41
2022-12-16T00:29:47.220Z,95411.78
2022-12-16T00:32:15.482Z,95480.66
2022-12-16T00:34:45.088Z,95522.56
2022-12-16T00:37:14.343Z,95488.81
2022-12-16T00:39:42.621Z,95452.63
2022-12-16T00:42:10.872Z,95479.38
2022-12-16T00:44:39.179Z,95504.59
2022-12-16T00:47:07.423Z,95526.75
2022-12-16T00:49:35.970Z,95523.84
2022-12-16T00:52:06.057Z,95533.59
2022-12-16T00:54:34.293Z,95519.50
2022-12-16T00:57:02.554Z,95532.28
2022-12-16T00:59:30.882Z,95336.59
2022-12-16T01:01:59.316Z,95448.00
2022-12-16T01:04:28.891Z,95517.50
2022-12-16T01:06:57.324Z,95355.22
2022-12-16T01:09:27.166Z,95515.94
2022-12-16T01:11:55.671Z,95501.13
2022-12-16T01:14:23.998Z,95486.31
2022-12-16T01:16:52.171Z,95513.06
2022-12-16T01:19:23.594Z,95477.56
2022-12-16T01:21:51.845Z,95486.38
2022-12-16T01:24:23.537Z,95509.44
2022-12-16T01:26:53.200Z,95480.22
2022-12-16T01:29:21.681Z,95482.88
2022-12-16T01:31:50.103Z,95429.03
2022-12-16T01:34:18.399Z,95411.50
2022-12-16T01:36:46.666Z,95445.91
2022-12-16T01:39:14.934Z,95479.66
2022-12-16T01:41:43.246Z,95524.41
2022-12-16T01:44:17.889Z,95501.38
2022-12-16T01:46:51.120Z,95514.63
2022-12-16T01:49:26.469Z,95443.22
2022-12-16T01:51:57.740Z,95502.41
2022-12-16T01:54:31.172Z,95467.38
2022-12-16T01:57:05.146Z,95475.03
2022-12-16T01:59:37.233Z,95487.56
2022-12-16T02:02:06.370Z,95460.84
2022-12-16T02:04:34.835Z,95422.66
2022-12-16T02:07:03.342Z,95398.72
2022-12-16T02:09:31.711Z,95276.22
2022-12-16T02:12:20.855Z,95486.44
2022-12-16T02:15:08.925Z,95467.66
2022-12-16T02:17:43.075Z,95469.81
2022-12-16T02:20:32.538Z,95369.66
2022-12-16T02:23:24.037Z,95452.06
2022-12-16T02:26:12.765Z,95333.06
2022-12-16T02:29:02.339Z,95490.59
2022-12-16T02:31:39.407Z,95394.56
2022-12-16T02:34:14.887Z,95427.75
2022-12-16T02:36:56.835Z,95322.25
2022-12-16T02:39:31.446Z,95457.94
2022-12-16T02:42:08.425Z,95462.50
2022-12-16T02:44:46.118Z,95410.94
2022-12-16T02:47:16.009Z,95500.88
2022-12-16T02:49:48.507Z,95470.69
2022-12-16T02:52:19.012Z,95453.28
2022-12-16T02:54:48.058Z,95469.44
2022-12-16T02:57:43.925Z,95442.97
2022-12-16T03:00:15.392Z,95502.41
2022-12-16T03:02:55.475Z,95473.53
2022-12-16T03:05:28.376Z,95506.47
2022-12-16T03:07:59.496Z,95462.13
2022-12-16T03:10:31.298Z,95484.19
2022-12-16T03:13:02.776Z,95488.19
2022-12-16T03:15:34.982Z,95483.34
2022-12-16T03:18:09.310Z,95454.19
2022-12-16T03:20:43.645Z,95471.19
2022-12-16T03:23:15.566Z,95491.63
2022-12-16T03:25:46.909Z,95451.28
2022-12-16T03:28:32.547Z,95490.00
2022-12-16T03:31:08.296Z,95513.00
2022-12-16T03:33:44.083Z,95512.22
2022-12-16T03:36:15.982Z,95503.25
2022-12-16T03:38:46.182Z,95498.47
2022-12-16T03:41:15.967Z,95494.53
2022-12-16T03:43:45.050Z,95503.84
2022-12-16T03:46:14.286Z,95450.16
2022-12-16T03:48:48.959Z,95506.41
2022-12-16T03:51:17.301Z,95472.50
2022-12-16T03:53:45.885Z,95502.66
2022-12-16T03:56:14.970Z,95494.19
2022-12-16T03:58:43.282Z,95482.28
2022-12-16T04:01:12.076Z,95515.22
2022-12-16T04:03:40.552Z,95454.75
2022-12-16T04:06:10.445Z,95500.06
2022-12-16T04:08:38.781Z,95498.47
2022-12-16T04:11:24.914Z,95509.59
2022-12-16T04:14:10.315Z,95474.88
2022-12-16T04:16:55.859Z,95498.59
2022-12-16T04:19:44.913Z,95492.06
2022-12-16T04:22:37.031Z,95517.00
2022-12-16T04:25:09.431Z,95518.63
2022-12-16T04:27:37.772Z,95363.72
2022-12-16T04:30:22.352Z,95523.81
2022-12-16T04:33:12.256Z,95504.56
2022-12-16T04:35:58.132Z,95348.81
2022-12-16T04:38:45.324Z,95557.53
2022-12-16T04:41:31.186Z,95547.75
2022-12-16T04:44:17.279Z,95548.28
2022-12-16T04:47:02.657Z,95530.53
2022-12-16T04:49:48.576Z,95524.94
2022-12-16T04:52:35.145Z,95530.78
2022-12-16T04:55:22.224Z,95545.41
2022-12-16T04:58:09.235Z,95549.94
2022-12-16T05:00:55.765Z,95548.78
2022-12-16T05:03:41.828Z,95557.41
2022-12-16T05:06:32.730Z,95517.78
2022-12-16T05:09:18.752Z,95461.34
2022-12-16T05:12:05.985Z,95557.41
2022-12-16T05:14:51.415Z,95544.97
2022-12-16T05:17:37.432Z,95546.94
2022-12-16T05:20:24.542Z,95561.78
2022-12-16T05:23:10.007Z,95569.50
2022-12-16T05:25:55.437Z,95564.31
2022-12-16T05:28:45.121Z,95551.88
2022-12-16T05:31:30.482Z,95555.88
2022-12-16T05:34:16.051Z,95561.97
2022-12-16T05:37:01.325Z,95554.75
2022-12-16T05:39:46.817Z,95565.16
2022-12-16T05:42:32.227Z,95568.22
2022-12-16T05:45:19.369Z,95542.66
2022-12-16T05:48:08.426Z,95554.16
2022-12-16T05:50:55.633Z,95544.13
2022-12-16T05:53:49.570Z,95566.25
2022-12-16T05:56:35.054Z,95572.78
2022-12-16T05:59:21.015Z,95580.91
2022-12-16T06:02:08.255Z,95577.91
2022-12-16T06:04:53.714Z,95585.59
2022-12-16T06:07:39.223Z,95577.75
2022-12-16T06:10:25.327Z,95583.13
2022-12-16T06:13:10.730Z,95590.09
2022-12-16T06:15:56.365Z,95594.47
2022-12-16T06:18:43.504Z,95595.22
2022-12-16T06:21:28.986Z,95601.72
2022-12-16T06:24:14.531Z,95598.56
2022-12-16T06:26:59.952Z,95596.56
2022-12-16T06:29:48.412Z,95488.41
2022-12-16T06:32:33.959Z,95598.91
2022-12-16T06:35:21.059Z,95597.34
2022-12-16T06:38:06.922Z,95550.94
2022-12-16T06:40:52.886Z,95601.72
2022-12-16T06:43:40.761Z,95606.56
2022-12-16T06:46:26.286Z,95618.34
2022-12-16T06:49:11.852Z,95647.28
2022-12-16T06:51:58.928Z,95640.63
2022-12-16T06:54:44.388Z,95639.44
2022-12-16T06:57:29.865Z,95635.22
2022-12-16T07:00:15.269Z,95636.06
2022-12-16T07:03:00.957Z,95557.56
2022-12-16T07:05:46.342Z,95630.41
2022-12-16T07:08:33.678Z,95634.03
2022-12-16T07:11:19.094Z,95566.63
2022-12-16T07:14:04.547Z,95616.03
2022-12-16T07:16:50.184Z,95614.25
2022-12-16T07:19:35.585Z,95622.72
2022-12-16T07:22:20.955Z,95617.72
2022-12-16T07:25:08.104Z,95630.50
2022-12-16T07:27:53.507Z,95619.19
2022-12-16T07:30:38.958Z,95648.41
2022-12-16T07:33:24.338Z,95627.28
2022-12-16T07:36:10.971Z,95654.69
2022-12-16T07:38:56.516Z,95598.94
2022-12-16T07:41:43.571Z,95630.25
2022-12-16T07:44:29.006Z,95637.19
2022-12-16T07:47:14.392Z,95636.44
2022-12-16T07:49:59.989Z,95679.22
2022-12-16T07:52:45.458Z,95649.84
2022-12-16T07:55:30.847Z,95633.75
2022-12-16T07:58:18.086Z,95592.63
2022-12-16T08:01:07.812Z,95638.34
2022-12-16T08:03:55.336Z,95633.38
2022-12-16T08:06:41.786Z,95624.44
2022-12-16T08:09:41.838Z,95597.69
2022-12-16T08:12:27.316Z,95577.97
2022-12-16T08:15:14.353Z,95640.28
2022-12-16T08:18:06.630Z,95645.38
2022-12-16T08:20:52.290Z,95649.03
2022-12-16T08:23:41.222Z,95641.13
2022-12-16T08:26:27.170Z,95635.56
2022-12-16T08:29:42.127Z,95648.00
2022-12-16T08:32:19.674Z,95638.81
2022-12-16T08:35:05.085Z,95640.81
2022-12-16T08:37:50.625Z,95647.03
2022-12-16T08:40:37.046Z,95654.03
2022-12-16T08:43:23.279Z,95635.78
2022-12-16T08:46:12.982Z,95658.03
2022-12-16T08:49:00.212Z,95657.53
2022-12-16T08:51:46.174Z,95647.53
2022-12-16T08:54:31.665Z,95628.44
2022-12-16T08:57:17.093Z,95634.50
2022-12-16T09:00:02.752Z,95636.34
2022-12-16T09:02:48.447Z,95608.59
2022-12-16T09:05:35.361Z,95559.50
2022-12-16T09:08:22.257Z,95610.75
2022-12-16T09:11:08.233Z,95609.44
2022-12-16T09:13:53.721Z,95607.81
2022-12-16T09:16:40.332Z,95591.88
2022-12-16T09:19:26.572Z,95584.38
2022-12-16T09:22:13.709Z,95600.84
2022-12-16T09:24:59.170Z,95593.81
2022-12-16T09:27:44.568Z,95582.09
2022-12-16T09:30:30.567Z,95597.75
2022-12-16T09:33:16.106Z,95574.13
2022-12-16T09:36:01.413Z,95595.13
2022-12-16T09:38:48.590Z,95599.91
2022-12-16T09:41:47.164Z,95534.66
2022-12-16T09:44:42.181Z,95586.91
2022-12-16T09:47:36.959Z,95563.03
2022-12-16T09:50:23.630Z,95568.63
2022-12-16T09:53:15.122Z,95573.34
2022-12-16T09:56:04.311Z,95492.22
2022-12-16T09:58:56.226Z,95573.09
2022-12-16T10:01:43.551Z,95576.06
2022-12-16T10:04:31.823Z,95568.09
2022-12-16T10:07:18.695Z,95572.84
2022-12-16T10:10:16.724Z,95563.28
2022-12-16T10:13:11.377Z,95556.34
2022-12-16T10:16:06.437Z,95552.06
2022-12-16T10:19:02.342Z,95563.28
2022-12-16T10:21:54.111Z,95568.09
2022-12-16T10:24:53.947Z,95558.75
2022-12-16T10:27:49.577Z,95553.16
2022-12-16T10:30:36.729Z,95553.13
2022-12-16T10:33:27.698Z,95472.56
2022-12-16T10:36:14.558Z,95531.72
2022-12-16T10:39:03.465Z,95548.72
2022-12-16T10:41:52.852Z,95535.19
2022-12-16T10:44:43.407Z,95403.94
2022-12-16T10:47:31.113Z,95541.28
2022-12-16T10:50:17.545Z,95466.50
2022-12-16T10:53:12.486Z,95528.84
2022-12-16T10:56:10.682Z,95533.34
2022-12-16T10:59:05.392Z,95533.56
2022-12-16T11:01:51.029Z,95529.00
2022-12-16T11:04:55.928Z,95529.81
2022-12-16T11:07:52.620Z,95528.78
2022-12-16T11:10:56.414Z,95533.53
2022-12-16T11:13:44.927Z,95517.88
2022-12-16T11:16:38.182Z,95512.59
2022-12-16T11:19:48.901Z,95533.06
2022-12-16T11:22:38.376Z,95521.91
2022-12-16T11:25:28.831Z,95531.72
2022-12-16T11:28:22.534Z,95524.56
2022-12-16T11:31:15.078Z,95516.84
2022-12-16T11:34:02.446Z,95525.78
2022-12-16T11:36:51.485Z,95525.59
2022-12-16T11:39:41.482Z,95477.94
2022-12-16T11:42:34.920Z,95523.22
2022-12-16T11:45:23.387Z,95531.44
2022-12-16T11:48:14.051Z,95526.91
2022-12-16T11:51:08.085Z,95517.59
2022-12-16T11:54:03.320Z,95516.53
2022-12-16T11:56:53.789Z,95523.44
2022-12-16T11:59:45.485Z,95524.53
2022-12-16T12:02:35.452Z,95520.28
2022-12-16T12:05:21.191Z,95523.00
2022-12-16T12:08:14.438Z,95526.16
2022-12-16T12:11:11.332Z,95513.13
2022-12-16T12:14:18.348Z,95510.59
2022-12-16T12:17:18.467Z,95515.25
2022-12-16T12:20:19.473Z,95506.34
2022-12-16T12:23:05.515Z,95514.38
2022-12-16T12:25:59.216Z,95507.47
2022-12-16T12:28:58.846Z,95505.94
2022-12-16T12:31:57.629Z,95513.03
2022-12-16T12:34:52.337Z,95510.47
2022-12-16T12:37:45.063Z,95507.03
2022-12-16T12:40:50.113Z,95504.22
2022-12-16T12:43:51.449Z,95356.13
2022-12-16T12:46:47.657Z,95497.84
2022-12-16T12:49:42.029Z,95447.22
2022-12-16T12:52:39.643Z,95500.19
2022-12-16T12:55:34.126Z,95500.91
2022-12-16T12:58:21.448Z,95502.22
2022-12-16T13:01:11.028Z,95506.03
2022-12-16T13:04:01.801Z,95508.06
2022-12-16T13:07:04.158Z,95484.53
2022-12-16T13:09:51.627Z,95490.41
2022-12-16T13:12:49.262Z,95499.13
2022-12-16T13:15:51.333Z,95492.09
2022-12-16T13:18:47.455Z,95495.75
2022-12-16T13:22:08.252Z,95498.81
2022-12-16T13:25:04.110Z,95485.56
2022-12-16T13:28:06.141Z,95478.63
2022-12-16T13:30:53.005Z,95499.31
2022-12-16T13:33:47.102Z,95490.97
2022-12-16T13:36:35.143Z,95507.69
2022-12-16T13:39:39.937Z,95507.31
2022-12-16T13:42:45.682Z,95512.50
2022-12-16T13:45:58.042Z,95509.53
2022-12-16T13:48:58.953Z,95510.44
2022-12-16T13:52:17.323Z,95501.22
2022-12-16T13:55:10.901Z,95516.16
2022-12-16T13:58:00.822Z,95500.50
2022-12-16T14:00:47.944Z,95517.06
2022-12-16T14:03:44.036Z,95525.28
2022-12-16T14:06:36.637Z,95529.88
2022-12-16T14:09:23.662Z,95530.41
2022-12-16T14:12:19.309Z,95533.63
2022-12-16T14:15:19.205Z,95541.00
2022-12-16T14:18:13.338Z,95547.09
2022-12-16T14:21:06.086Z,95556.91
2022-12-16T14:24:00.192Z,95543.94
2022-12-16T14:26:46.931Z,95548.19
2022-12-16T14:29:40.837Z,95558.25
2022-12-16T14:32:44.571Z,95558.25
2022-12-16T14:35:32.979Z,95561.97
2022-12-16T14:38:38.998Z,95544.22
2022-12-16T14:41:26.404Z,95560.13
2022-12-16T14:44:12.451Z,95549.53
2022-12-16T14:46:59.550Z,95558.22
2022-12-16T14:49:47.111Z,95550.53
2022-12-16T14:52:43.135Z,95557.44
2022-12-16T14:55:34.636Z,95548.41
2022-12-16T14:58:22.614Z,95522.19
2022-12-16T15:01:13.944Z,95544.94
2022-12-16T15:04:08.833Z,95560.31
2022-12-16T15:06:59.457Z,95561.91
2022-12-16T15:09:48.953Z,95563.78
2022-12-16T15:12:38.990Z,95564.56
2022-12-16T15:15:28.297Z,95569.09
2022-12-16T15:18:16.147Z,95556.34
2022-12-16T15:21:09.426Z,95576.53
2022-12-16T15:23:58.730Z,95570.38
2022-12-16T15:26:46.209Z,95579.19
2022-12-16T15:29:47.580Z,95575.47
2022-12-16T15:32:48.131Z,95580.25
2022-12-16T15:35:44.172Z,95573.88
2022-12-16T15:38:36.899Z,95579.19
2022-12-16T15:41:24.735Z,95580.78
2022-12-16T15:44:10.800Z,95565.63
2022-12-16T15:46:56.782Z,95568.28
2022-12-16T15:49:52.819Z,95577.63
2022-12-16T15:52:50.908Z,95576.28
2022-12-16T15:55:48.344Z,95581.31
2022-12-16T15:58:39.907Z,95584.50
2022-12-16T16:01:26.915Z,95570.41
2022-12-16T16:04:15.087Z,95575.44
2022-12-16T16:07:04.680Z,95568.28
2022-12-16T16:09:54.890Z,95578.66
2022-12-16T16:12:43.409Z,95576.78
2022-12-16T16:15:31.277Z,95576.56
2022-12-16T16:18:18.563Z,95590.88
2022-12-16T16:21:04.645Z,95589.56
2022-12-16T16:23:50.586Z,95597.28
2022-12-16T16:26:39.020Z,95607.31
2022-12-16T16:29:30.371Z,95605.47
2022-12-16T16:32:15.960Z,95606.56
2022-12-16T16:35:01.521Z,95603.63
2022-12-16T16:37:46.910Z,95610.53
2022-12-16T16:40:37.626Z,95616.38
2022-12-16T16:43:23.524Z,95612.63
2022-12-16T16:46:12.661Z,95618.50
2022-12-16T16:48:58.554Z,95618.22
2022-12-16T16:51:45.622Z,95612.91
2022-12-16T16:54:31.198Z,95614.75
2022-12-16T16:57:19.869Z,95617.41
2022-12-16T17:00:05.475Z,95614.75
2022-12-16T17:02:52.669Z,95629.63
2022-12-16T17:05:38.561Z,95627.78
2022-12-16T17:08:32.573Z,95624.56
2022-12-16T17:11:32.742Z,95621.41
2022-12-16T17:14:18.515Z,95620.59
2022-12-16T17:17:06.675Z,95642.38
2022-12-16T17:19:53.831Z,95642.91
2022-12-16T17:22:39.192Z,95647.09
2022-12-16T17:25:25.815Z,95652.44
2022-12-16T17:28:11.142Z,95646.34
2022-12-16T17:30:56.839Z,95642.09
2022-12-16T17:33:42.353Z,95645.53
2022-12-16T17:36:36.864Z,95646.88
2022-12-16T17:39:23.721Z,95648.44
2022-12-16T17:42:09.623Z,95640.78
2022-12-16T17:44:58.160Z,95648.72
2022-12-16T17:47:43.691Z,95612.63
2022-12-16T17:50:29.680Z,95637.06
2022-12-16T17:53:17.872Z,95642.63
2022-12-16T17:56:03.712Z,95631.22
2022-12-16T17:58:50.562Z,95641.81
2022-12-16T18:01:36.743Z,95642.88
2022-12-16T18:04:23.006Z,95649.19
2022-12-16T18:07:08.587Z,95631.63
2022-12-16T18:09:55.686Z,95651.53
2022-12-16T18:12:42.114Z,95652.38
2022-12-16T18:15:28.613Z,95624.50
2022-12-16T18:18:14.576Z,95638.63
2022-12-16T18:21:00.133Z,95650.28
2022-12-16T18:23:48.136Z,95661.59
2022-12-16T18:26:35.499Z,95656.91
2022-12-16T18:29:20.891Z,95655.31
2022-12-16T18:32:06.871Z,95658.72
2022-12-16T18:34:52.861Z,95664.31
2022-12-16T18:37:38.204Z,95651.09
2022-12-16T18:40:25.273Z,95654.00
2022-12-16T18:43:12.355Z,95655.88
2022-12-16T18:45:57.842Z,95641.78
2022-12-16T18:48:43.465Z,95649.50
2022-12-16T18:51:28.905Z,95636.22
2022-12-16T18:54:14.690Z,95649.75
2022-12-16T18:57:00.158Z,95643.69
2022-12-16T18:59:47.263Z,95631.19
2022-12-16T19:02:33.001Z,95605.66
2022-12-16T19:05:18.711Z,95642.88
2022-12-16T19:08:04.083Z,95641.53
2022-12-16T19:10:49.615Z,95645.50
2022-12-16T19:13:34.970Z,95641.53
2022-12-16T19:16:22.102Z,95643.34
2022-12-16T19:19:07.465Z,95652.41
2022-12-16T19:21:56.360Z,95650.56
2022-12-16T19:24:42.516Z,95652.69
2022-12-16T19:27:27.956Z,95649.00
2022-12-16T19:30:13.514Z,95643.41
2022-12-16T19:33:00.816Z,95644.19
2022-12-16T19:35:46.137Z,95655.06
2022-12-16T19:38:32.136Z,95642.63
2022-12-16T19:41:18.153Z,95640.75
2022-12-16T19:47:09.553Z,95647.84
2022-12-16T19:49:56.585Z,95648.16
2022-12-16T19:52:42.499Z,95655.75
2022-12-16T19:55:27.927Z,95650.72
2022-12-16T19:58:13.878Z,95655.81
2022-12-16T20:00:59.856Z,95645.00
2022-12-16T20:03:46.025Z,95649.19
2022-12-16T20:06:33.425Z,95625.34
2022-12-16T20:09:18.894Z,95651.91
2022-12-16T20:12:04.528Z,95659.28
2022-12-16T20:14:50.329Z,95648.41
2022-12-16T20:17:37.528Z,95666.44
2022-12-16T20:20:24.085Z,95652.97
2022-12-16T20:23:13.919Z,95666.78
2022-12-16T20:25:59.264Z,95669.94
2022-12-16T20:28:44.822Z,95637.03
2022-12-16T20:31:30.382Z,95651.09
2022-12-16T20:34:16.401Z,95669.94
2022-12-16T20:37:01.983Z,95650.78
2022-12-16T20:39:57.597Z,95623.19
2022-12-16T20:42:42.966Z,95668.31
2022-12-16T20:45:28.927Z,95658.50
2022-12-16T20:48:14.530Z,95656.97
2022-12-16T20:51:00.027Z,95639.94
2022-12-16T20:53:45.530Z,95663.03
2022-12-16T20:56:32.599Z,95663.03
2022-12-16T20:59:18.081Z,95670.97
2022-12-16T21:05:12.505Z,95683.16
2022-12-16T21:07:57.995Z,95673.09
2022-12-16T21:10:43.908Z,95630.09
2022-12-16T21:13:33.645Z,95680.03
2022-12-16T21:16:22.801Z,95671.22
2022-12-16T21:19:08.199Z,95669.88
2022-12-16T21:21:55.179Z,95674.13
2022-12-16T21:24:42.587Z,95676.25
2022-12-16T21:27:28.116Z,95672.00
2022-12-16T21:30:15.334Z,95687.59
2022-12-16T21:33:00.856Z,95656.25
2022-12-16T21:35:46.266Z,95665.09
2022-12-16T21:38:32.296Z,95679.50
2022-12-16T21:41:17.799Z,95638.09
2022-12-16T21:44:03.104Z,95682.69
2022-12-16T21:46:50.333Z,95675.25
2022-12-16T21:49:35.728Z,95660.13
2022-12-16T21:52:21.336Z,95674.22
2022-12-16T21:55:06.895Z,95619.81
2022-12-16T21:57:53.263Z,95676.28
2022-12-16T22:00:39.054Z,95489.69
2022-12-16T22:03:26.238Z,95677.09
2022-12-16T22:06:11.654Z,95607.56
2022-12-16T22:08:57.271Z,95678.44
2022-12-16T22:11:42.557Z,95673.66
2022-12-16T22:14:28.259Z,95598.28
2022-12-16T22:17:13.785Z,95560.13
2022-12-16T22:20:01.154Z,95658.28
2022-12-16T22:22:46.807Z,95632.25
2022-12-16T22:25:32.729Z,95656.94
2022-12-16T22:28:18.119Z,95627.16
2022-12-16T22:31:03.600Z,95667.22
2022-12-16T22:33:49.356Z,95669.59
2022-12-16T22:36:36.783Z,95672.78
2022-12-16T22:39:22.735Z,95668.88
2022-12-16T22:42:09.381Z,95668.34
2022-12-16T22:44:56.521Z,95665.44
2022-12-16T22:47:42.256Z,95580.78
2022-12-16T22:50:28.143Z,95654.31
2022-12-16T22:53:15.438Z,95655.38
2022-12-16T22:56:02.227Z,95649.00
2022-12-16T22:58:48.067Z,95484.19
2022-12-16T23:01:33.827Z,95666.25
2022-12-16T23:04:19.732Z,95653.00
2022-12-16T23:07:05.282Z,95654.53
2022-12-16T23:09:53.286Z,95656.41
2022-12-16T23:12:39.942Z,95618.91
2022-12-16T23:15:27.969Z,95635.94
2022-12-16T23:18:13.719Z,95645.25
2022-12-16T23:21:05.208Z,95555.78
2022-12-16T23:23:51.079Z,95628.78
2022-12-16T23:26:39.965Z,95648.19
2022-12-16T23:29:25.381Z,95648.19
2022-12-16T23:32:10.785Z,95604.13
2022-12-16T23:35:05.186Z,95654.53
2022-12-16T23:37:50.720Z,95609.94
2022-12-16T23:40:36.291Z,95651.63
2022-12-16T23:43:23.430Z,95654.00
2022-12-16T23:46:08.928Z,95610.94
2022-12-16T23:48:55.567Z,95646.56
2022-12-16T23:51:41.025Z,95590.84
2022-12-16T23:54:26.611Z,95647.94
2022-12-16T23:57:11.946Z,95644.47
2022-12-16T23:59:59.024Z,95632.53
